sensor_id;sensor_type;location;lat;lon;timestamp;temperature;humidity
47456;DHT22;33202;48.512;-2.780;2023-03-31T03:00:40;11.40;1.00
47456;DHT22;33202;48.512;-2.780;2023-03-31T03:03:23;11.40;1.00
47456;DHT22;33202;48.512;-2.780;2023-03-31T03:08:41;11.30;1.00
47456;DHT22;33202;48.512;-2.780;2023-03-31T03:11:19;11.30;1.00
47456;DHT22;33202;48.512;-2.780;2023-03-31T03:13:50;11.40;1.00
47456;DHT22;33202;48.512;-2.780;2023-03-31T03:16:57;11.40;1.00
47456;DHT22;33202;48.512;-2.780;2023-03-31T03:19:24;11.50;1.00
47456;DHT22;33202;48.512;-2.780;2023-03-31T03:21:51;11.60;1.00
47456;DHT22;33202;48.512;-2.780;2023-03-31T03:24:17;11.60;1.00
47456;DHT22;33202;48.512;-2.780;2023-03-31T03:26:43;11.60;1.00
47456;DHT22;33202;48.512;-2.780;2023-03-31T03:29:11;11.60;1.00
47456;DHT22;33202;48.512;-2.780;2023-03-31T03:31:40;11.70;1.00
47456;DHT22;33202;48.512;-2.780;2023-03-31T03:34:06;11.70;1.00
47456;DHT22;33202;48.512;-2.780;2023-03-31T03:36:34;11.70;1.00
47456;DHT22;33202;48.512;-2.780;2023-03-31T03:39:00;11.70;1.00
47456;DHT22;33202;48.512;-2.780;2023-03-31T03:41:26;11.70;1.00
47456;DHT22;33202;48.512;-2.780;2023-03-31T03:43:51;11.70;1.00
47456;DHT22;33202;48.512;-2.780;2023-03-31T03:46:17;11.70;1.00
47456;DHT22;33202;48.512;-2.780;2023-03-31T03:48:43;11.60;2.00
47456;DHT22;33202;48.512;-2.780;2023-03-31T03:51:08;11.60;1.00
47456;DHT22;33202;48.512;-2.780;2023-03-31T03:53:34;11.60;1.00
47456;DHT22;33202;48.512;-2.780;2023-03-31T03:56:00;11.60;1.00
47456;DHT22;33202;48.512;-2.780;2023-03-31T03:58:26;11.70;1.00
47456;DHT22;33202;48.512;-2.780;2023-03-31T04:00:51;11.70;1.00
47456;DHT22;33202;48.512;-2.780;2023-03-31T04:03:17;11.70;1.00
47456;DHT22;33202;48.512;-2.780;2023-03-31T04:05:43;11.60;2.60
47456;DHT22;33202;48.512;-2.780;2023-03-31T04:08:08;11.50;24.80
47456;DHT22;33202;48.512;-2.780;2023-03-31T04:10:34;11.30;41.40
47456;DHT22;33202;48.512;-2.780;2023-03-31T04:13:00;11.20;71.90
47456;DHT22;33202;48.512;-2.780;2023-03-31T04:15:26;11.20;72.40
47456;DHT22;33202;48.512;-2.780;2023-03-31T04:17:52;11.20;75.60
47456;DHT22;33202;48.512;-2.780;2023-03-31T04:20:19;11.30;60.10
47456;DHT22;33202;48.512;-2.780;2023-03-31T04:22:46;11.20;40.70
47456;DHT22;33202;48.512;-2.780;2023-03-31T04:25:15;11.30;45.40
47456;DHT22;33202;48.512;-2.780;2023-03-31T04:27:46;11.30;33.30
47456;DHT22;33202;48.512;-2.780;2023-03-31T04:30:15;11.30;38.70
47456;DHT22;33202;48.512;-2.780;2023-03-31T04:32:52;11.20;60.00
47456;DHT22;33202;48.512;-2.780;2023-03-31T04:35:20;11.20;57.60
47456;DHT22;33202;48.512;-2.780;2023-03-31T04:37:50;11.10;57.90
47456;DHT22;33202;48.512;-2.780;2023-03-31T04:40:17;11.10;62.10
47456;DHT22;33202;48.512;-2.780;2023-03-31T04:42:43;11.10;68.60
47456;DHT22;33202;48.512;-2.780;2023-03-31T04:45:10;11.20;42.30
47456;DHT22;33202;48.512;-2.780;2023-03-31T04:47:36;11.20;33.90
47456;DHT22;33202;48.512;-2.780;2023-03-31T04:50:02;11.20;23.70
47456;DHT22;33202;48.512;-2.780;2023-03-31T04:52:28;11.30;24.00
47456;DHT22;33202;48.512;-2.780;2023-03-31T04:54:53;11.30;23.50
47456;DHT22;33202;48.512;-2.780;2023-03-31T04:57:19;11.30;18.80
47456;DHT22;33202;48.512;-2.780;2023-03-31T04:59:45;11.30;24.00
47456;DHT22;33202;48.512;-2.780;2023-03-31T05:02:11;11.30;18.60
47456;DHT22;33202;48.512;-2.780;2023-03-31T05:04:36;11.40;13.10
47456;DHT22;33202;48.512;-2.780;2023-03-31T05:07:02;11.40;14.50
47456;DHT22;33202;48.512;-2.780;2023-03-31T05:09:28;11.40;17.80
47456;DHT22;33202;48.512;-2.780;2023-03-31T05:11:53;11.40;15.80
47456;DHT22;33202;48.512;-2.780;2023-03-31T05:14:19;11.40;11.30
47456;DHT22;33202;48.512;-2.780;2023-03-31T05:16:45;11.40;12.10
47456;DHT22;33202;48.512;-2.780;2023-03-31T05:19:11;11.30;10.20
47456;DHT22;33202;48.512;-2.780;2023-03-31T05:21:36;11.30;8.40
47456;DHT22;33202;48.512;-2.780;2023-03-31T05:24:02;11.30;9.80
47456;DHT22;33202;48.512;-2.780;2023-03-31T05:26:29;11.30;1.00
47456;DHT22;33202;48.512;-2.780;2023-03-31T05:28:55;11.30;1.00
47456;DHT22;33202;48.512;-2.780;2023-03-31T05:31:21;11.40;1.00
47456;DHT22;33202;48.512;-2.780;2023-03-31T05:33:46;11.40;1.00
47456;DHT22;33202;48.512;-2.780;2023-03-31T05:36:14;11.50;1.00
47456;DHT22;33202;48.512;-2.780;2023-03-31T05:38:41;11.50;1.00
47456;DHT22;33202;48.512;-2.780;2023-03-31T05:41:07;11.30;11.60
47456;DHT22;33202;48.512;-2.780;2023-03-31T05:43:34;11.30;9.60
47456;DHT22;33202;48.512;-2.780;2023-03-31T05:46:00;11.30;1.10
47456;DHT22;33202;48.512;-2.780;2023-03-31T05:48:26;11.20;3.90
47456;DHT22;33202;48.512;-2.780;2023-03-31T05:50:58;11.20;1.00
47456;DHT22;33202;48.512;-2.780;2023-03-31T05:53:24;11.20;1.00
47456;DHT22;33202;48.512;-2.780;2023-03-31T05:55:56;11.20;1.00
47456;DHT22;33202;48.512;-2.780;2023-03-31T05:58:22;11.20;1.00
47456;DHT22;33202;48.512;-2.780;2023-03-31T06:00:48;11.20;1.00
47456;DHT22;33202;48.512;-2.780;2023-03-31T06:03:14;11.10;6.30
47456;DHT22;33202;48.512;-2.780;2023-03-31T06:05:46;11.00;14.40
47456;DHT22;33202;48.512;-2.780;2023-03-31T06:08:12;11.00;23.10
47456;DHT22;33202;48.512;-2.780;2023-03-31T06:10:38;11.00;19.60
47456;DHT22;33202;48.512;-2.780;2023-03-31T06:13:03;11.00;17.80
47456;DHT22;33202;48.512;-2.780;2023-03-31T06:15:29;11.00;10.60
47456;DHT22;33202;48.512;-2.780;2023-03-31T06:17:55;11.10;10.10
47456;DHT22;33202;48.512;-2.780;2023-03-31T06:20:21;11.10;12.10
47456;DHT22;33202;48.512;-2.780;2023-03-31T06:22:48;11.10;1.00
47456;DHT22;33202;48.512;-2.780;2023-03-31T06:25:13;11.10;2.10
47456;DHT22;33202;48.512;-2.780;2023-03-31T06:27:39;11.10;1.00
47456;DHT22;33202;48.512;-2.780;2023-03-31T06:30:06;11.20;1.00
47456;DHT22;33202;48.512;-2.780;2023-03-31T06:32:31;11.20;1.00
47456;DHT22;33202;48.512;-2.780;2023-03-31T06:34:57;11.20;1.00
47456;DHT22;33202;48.512;-2.780;2023-03-31T06:37:23;11.20;1.00
47456;DHT22;33202;48.512;-2.780;2023-03-31T06:39:48;11.20;1.00
47456;DHT22;33202;48.512;-2.780;2023-03-31T06:42:15;11.20;1.00
47456;DHT22;33202;48.512;-2.780;2023-03-31T07:33:25;11.20;41.90
47456;DHT22;33202;48.512;-2.780;2023-03-31T07:35:51;11.20;44.60
47456;DHT22;33202;48.512;-2.780;2023-03-31T07:38:16;11.30;24.10
47456;DHT22;33202;48.512;-2.780;2023-03-31T07:40:44;11.30;15.50
47456;DHT22;33202;48.512;-2.780;2023-03-31T07:43:10;11.30;22.50
